sensor_id;sensor_type;location;lat;lon;timestamp;temperature;humidity
14188;DHT22;7175;51.978;5.330;2022-08-25T00:01:31;22.30;99.90
14188;DHT22;7175;51.978;5.330;2022-08-25T00:04:12;22.30;99.90
14188;DHT22;7175;51.978;5.330;2022-08-25T00:07:09;22.30;99.90
14188;DHT22;7175;51.978;5.330;2022-08-25T00:10:17;22.30;99.90
14188;DHT22;7175;51.978;5.330;2022-08-25T00:13:04;22.20;99.90
14188;DHT22;7175;51.978;5.330;2022-08-25T00:15:33;22.20;99.90
14188;DHT22;7175;51.978;5.330;2022-08-25T00:18:09;22.10;99.90
14188;DHT22;7175;51.978;5.330;2022-08-25T00:20:56;22.10;99.90
14188;DHT22;7175;51.978;5.330;2022-08-25T00:23:44;22.10;99.90
14188;DHT22;7175;51.978;5.330;2022-08-25T00:26:16;22.10;99.90
14188;DHT22;7175;51.978;5.330;2022-08-25T00:28:52;22.00;99.90
14188;DHT22;7175;51.978;5.330;2022-08-25T00:31:53;22.00;99.90
14188;DHT22;7175;51.978;5.330;2022-08-25T00:38:13;22.00;99.90
14188;DHT22;7175;51.978;5.330;2022-08-25T00:40:54;22.00;99.90
14188;DHT22;7175;51.978;5.330;2022-08-25T00:43:45;22.10;99.90
14188;DHT22;7175;51.978;5.330;2022-08-25T00:46:17;22.10;99.90
14188;DHT22;7175;51.978;5.330;2022-08-25T00:48:51;22.20;99.90
14188;DHT22;7175;51.978;5.330;2022-08-25T00:54:50;22.20;99.90
14188;DHT22;7175;51.978;5.330;2022-08-25T00:57:26;22.20;99.90
14188;DHT22;7175;51.978;5.330;2022-08-25T01:00:03;22.20;99.90
14188;DHT22;7175;51.978;5.330;2022-08-25T01:02:51;22.10;99.90
14188;DHT22;7175;51.978;5.330;2022-08-25T01:05:45;22.10;99.90
14188;DHT22;7175;51.978;5.330;2022-08-25T01:08:24;22.10;99.90
14188;DHT22;7175;51.978;5.330;2022-08-25T01:10:58;22.10;99.90
14188;DHT22;7175;51.978;5.330;2022-08-25T01:13:38;22.00;99.90
14188;DHT22;7175;51.978;5.330;2022-08-25T01:16:20;22.00;99.90
14188;DHT22;7175;51.978;5.330;2022-08-25T01:18:52;22.00;99.90
14188;DHT22;7175;51.978;5.330;2022-08-25T01:21:26;22.00;99.90
14188;DHT22;7175;51.978;5.330;2022-08-25T01:24:11;21.90;99.90
14188;DHT22;7175;51.978;5.330;2022-08-25T01:26:54;21.80;99.90
14188;DHT22;7175;51.978;5.330;2022-08-25T01:29:23;21.80;99.90
14188;DHT22;7175;51.978;5.330;2022-08-25T01:31:59;21.70;99.90
14188;DHT22;7175;51.978;5.330;2022-08-25T01:34:45;21.70;99.90
14188;DHT22;7175;51.978;5.330;2022-08-25T01:37:21;21.70;99.90
14188;DHT22;7175;51.978;5.330;2022-08-25T01:39:57;21.70;99.90
14188;DHT22;7175;51.978;5.330;2022-08-25T01:42:39;21.70;99.90
14188;DHT22;7175;51.978;5.330;2022-08-25T01:45:09;21.70;99.90
14188;DHT22;7175;51.978;5.330;2022-08-25T01:47:37;21.70;99.90
14188;DHT22;7175;51.978;5.330;2022-08-25T01:53:30;21.70;99.90
14188;DHT22;7175;51.978;5.330;2022-08-25T01:56:14;21.70;99.90
14188;DHT22;7175;51.978;5.330;2022-08-25T01:59:01;21.80;99.90
14188;DHT22;7175;51.978;5.330;2022-08-25T02:01:29;21.90;99.90
14188;DHT22;7175;51.978;5.330;2022-08-25T02:04:03;21.90;99.90
14188;DHT22;7175;51.978;5.330;2022-08-25T02:06:52;22.00;99.90
14188;DHT22;7175;51.978;5.330;2022-08-25T02:09:28;22.00;99.90
14188;DHT22;7175;51.978;5.330;2022-08-25T02:11:59;22.10;99.90
14188;DHT22;7175;51.978;5.330;2022-08-25T02:14:27;22.10;99.90
14188;DHT22;7175;51.978;5.330;2022-08-25T02:16:59;22.30;99.90
14188;DHT22;7175;51.978;5.330;2022-08-25T02:19:37;22.30;99.90
14188;DHT22;7175;51.978;5.330;2022-08-25T02:22:11;22.30;99.90
14188;DHT22;7175;51.978;5.330;2022-08-25T02:24:45;22.30;99.90
14188;DHT22;7175;51.978;5.330;2022-08-25T02:27:22;22.40;99.90
14188;DHT22;7175;51.978;5.330;2022-08-25T02:29:52;22.40;99.90
14188;DHT22;7175;51.978;5.330;2022-08-25T02:32:23;22.40;99.90
14188;DHT22;7175;51.978;5.330;2022-08-25T02:34:52;22.40;99.90
14188;DHT22;7175;51.978;5.330;2022-08-25T02:37:25;22.40;99.90
14188;DHT22;7175;51.978;5.330;2022-08-25T02:39:56;22.40;99.90
14188;DHT22;7175;51.978;5.330;2022-08-25T02:42:33;22.40;99.90
14188;DHT22;7175;51.978;5.330;2022-08-25T02:45:09;22.40;99.90
14188;DHT22;7175;51.978;5.330;2022-08-25T02:47:38;22.40;99.90
14188;DHT22;7175;51.978;5.330;2022-08-25T02:50:10;22.40;99.90
14188;DHT22;7175;51.978;5.330;2022-08-25T02:52:38;22.30;99.90
14188;DHT22;7175;51.978;5.330;2022-08-25T02:55:19;22.40;99.90
14188;DHT22;7175;51.978;5.330;2022-08-25T02:57:48;22.30;99.90
14188;DHT22;7175;51.978;5.330;2022-08-25T03:00:34;22.30;99.90
14188;DHT22;7175;51.978;5.330;2022-08-25T03:03:04;22.30;99.90
14188;DHT22;7175;51.978;5.330;2022-08-25T03:05:36;22.40;99.90
14188;DHT22;7175;51.978;5.330;2022-08-25T03:08:10;22.30;99.90
14188;DHT22;7175;51.978;5.330;2022-08-25T03:10:59;22.30;99.90
14188;DHT22;7175;51.978;5.330;2022-08-25T03:13:30;22.30;99.90
14188;DHT22;7175;51.978;5.330;2022-08-25T03:16:13;22.30;99.90
14188;DHT22;7175;51.978;5.330;2022-08-25T03:19:00;22.30;99.90
14188;DHT22;7175;51.978;5.330;2022-08-25T03:21:50;22.30;99.90
14188;DHT22;7175;51.978;5.330;2022-08-25T03:24:42;22.20;99.90
14188;DHT22;7175;51.978;5.330;2022-08-25T03:27:24;22.20;99.90
14188;DHT22;7175;51.978;5.330;2022-08-25T03:30:08;22.20;99.90
14188;DHT22;7175;51.978;5.330;2022-08-25T03:32:41;22.20;99.90
14188;DHT22;7175;51.978;5.330;2022-08-25T03:35:13;22.10;99.90
14188;DHT22;7175;51.978;5.330;2022-08-25T03:37:59;22.10;99.90
14188;DHT22;7175;51.978;5.330;2022-08-25T03:40:27;22.10;99.90
14188;DHT22;7175;51.978;5.330;2022-08-25T03:43:10;22.10;99.90
14188;DHT22;7175;51.978;5.330;2022-08-25T03:45:49;22.00;99.90
14188;DHT22;7175;51.978;5.330;2022-08-25T03:48:17;22.00;99.90
14188;DHT22;7175;51.978;5.330;2022-08-25T03:51:17;22.00;99.90
14188;DHT22;7175;51.978;5.330;2022-08-25T03:54:00;22.00;99.90
14188;DHT22;7175;51.978;5.330;2022-08-25T03:56:37;21.90;99.90
14188;DHT22;7175;51.978;5.330;2022-08-25T03:59:10;21.90;99.90
14188;DHT22;7175;51.978;5.330;2022-08-25T04:01:51;21.90;99.90
14188;DHT22;7175;51.978;5.330;2022-08-25T04:04:22;21.80;99.90
14188;DHT22;7175;51.978;5.330;2022-08-25T04:06:58;21.90;99.90
14188;DHT22;7175;51.978;5.330;2022-08-25T04:09:28;21.80;99.90
14188;DHT22;7175;51.978;5.330;2022-08-25T04:12:19;21.80;99.90
14188;DHT22;7175;51.978;5.330;2022-08-25T04:14:58;21.80;99.90
14188;DHT22;7175;51.978;5.330;2022-08-25T04:17:29;21.80;99.90
14188;DHT22;7175;51.978;5.330;2022-08-25T04:20:21;21.70;99.90
14188;DHT22;7175;51.978;5.330;2022-08-25T04:22:56;21.70;99.90
14188;DHT22;7175;51.978;5.330;2022-08-25T04:25:31;21.70;99.90
14188;DHT22;7175;51.978;5.330;2022-08-25T04:28:01;21.60;99.90
14188;DHT22;7175;51.978;5.330;2022-08-25T04:30:40;21.60;99.90
14188;DHT22;7175;51.978;5.330;2022-08-25T04:33:16;21.60;99.90
14188;DHT22;7175;51.978;5.330;2022-08-25T04:35:46;21.60;99.90
14188;DHT22;7175;51.978;5.330;2022-08-25T04:38:16;21.50;99.90
14188;DHT22;7175;51.978;5.330;2022-08-25T04:40:54;21.60;99.90
14188;DHT22;7175;51.978;5.330;2022-08-25T04:43:25;21.50;99.90
14188;DHT22;7175;51.978;5.330;2022-08-25T04:46:04;21.60;99.90
14188;DHT22;7175;51.978;5.330;2022-08-25T04:48:34;21.60;99.90
14188;DHT22;7175;51.978;5.330;2022-08-25T04:51:11;21.60;99.90
14188;DHT22;7175;51.978;5.330;2022-08-25T04:53:50;21.50;99.90
14188;DHT22;7175;51.978;5.330;2022-08-25T04:56:21;21.50;99.90
14188;DHT22;7175;51.978;5.330;2022-08-25T04:58:56;21.40;99.90
14188;DHT22;7175;51.978;5.330;2022-08-25T05:01:48;21.40;99.90
14188;DHT22;7175;51.978;5.330;2022-08-25T05:04:21;21.30;99.90
14188;DHT22;7175;51.978;5.330;2022-08-25T05:06:56;21.30;99.90
14188;DHT22;7175;51.978;5.330;2022-08-25T05:09:27;21.30;99.90
14188;DHT22;7175;51.978;5.330;2022-08-25T05:12:18;21.30;99.90
14188;DHT22;7175;51.978;5.330;2022-08-25T05:14:50;21.30;99.90
14188;DHT22;7175;51.978;5.330;2022-08-25T05:17:20;21.30;99.90
14188;DHT22;7175;51.978;5.330;2022-08-25T05:19:55;21.20;99.90
14188;DHT22;7175;51.978;5.330;2022-08-25T05:22:36;21.20;99.90
14188;DHT22;7175;51.978;5.330;2022-08-25T05:25:07;21.20;99.90
14188;DHT22;7175;51.978;5.330;2022-08-25T05:27:35;21.30;99.90
14188;DHT22;7175;51.978;5.330;2022-08-25T05:30:05;21.30;99.90
14188;DHT22;7175;51.978;5.330;2022-08-25T05:32:37;21.30;99.90
14188;DHT22;7175;51.978;5.330;2022-08-25T05:35:06;21.40;99.90
14188;DHT22;7175;51.978;5.330;2022-08-25T05:37:35;21.40;99.90
14188;DHT22;7175;51.978;5.330;2022-08-25T05:40:05;21.50;99.90
14188;DHT22;7175;51.978;5.330;2022-08-25T05:42:34;21.60;99.90
14188;DHT22;7175;51.978;5.330;2022-08-25T05:45:03;21.60;99.90
14188;DHT22;7175;51.978;5.330;2022-08-25T05:47:34;21.60;99.90
14188;DHT22;7175;51.978;5.330;2022-08-25T05:50:02;21.80;99.90
14188;DHT22;7175;51.978;5.330;2022-08-25T05:52:30;21.80;99.90
14188;DHT22;7175;51.978;5.330;2022-08-25T05:55:01;21.80;99.90
14188;DHT22;7175;51.978;5.330;2022-08-25T05:57:33;21.90;99.90
14188;DHT22;7175;51.978;5.330;2022-08-25T06:00:08;21.90;99.90
14188;DHT22;7175;51.978;5.330;2022-08-25T06:02:40;22.00;99.90
14188;DHT22;7175;51.978;5.330;2022-08-25T06:05:11;22.00;99.90
14188;DHT22;7175;51.978;5.330;2022-08-25T06:07:40;22.00;99.90
14188;DHT22;7175;51.978;5.330;2022-08-25T06:10:09;21.90;99.90
14188;DHT22;7175;51.978;5.330;2022-08-25T06:12:40;21.90;99.90
14188;DHT22;7175;51.978;5.330;2022-08-25T06:15:14;21.90;99.90
14188;DHT22;7175;51.978;5.330;2022-08-25T06:17:48;21.90;99.90
14188;DHT22;7175;51.978;5.330;2022-08-25T06:20:19;21.90;99.90
14188;DHT22;7175;51.978;5.330;2022-08-25T06:22:52;21.90;99.90
14188;DHT22;7175;51.978;5.330;2022-08-25T06:25:22;21.90;99.90
14188;DHT22;7175;51.978;5.330;2022-08-25T06:27:51;22.10;99.90
14188;DHT22;7175;51.978;5.330;2022-08-25T06:30:27;22.10;99.90
14188;DHT22;7175;51.978;5.330;2022-08-25T06:33:02;22.20;99.90
14188;DHT22;7175;51.978;5.330;2022-08-25T06:35:40;22.20;99.90
14188;DHT22;7175;51.978;5.330;2022-08-25T06:38:10;22.20;99.90
14188;DHT22;7175;51.978;5.330;2022-08-25T06:40:46;22.20;99.90
14188;DHT22;7175;51.978;5.330;2022-08-25T06:46:24;22.50;99.90
14188;DHT22;7175;51.978;5.330;2022-08-25T06:49:08;22.80;99.90
14188;DHT22;7175;51.978;5.330;2022-08-25T06:51:49;22.90;99.90
14188;DHT22;7175;51.978;5.330;2022-08-25T06:54:22;22.90;99.90
14188;DHT22;7175;51.978;5.330;2022-08-25T06:56:51;23.10;99.90
14188;DHT22;7175;51.978;5.330;2022-08-25T06:59:21;23.20;99.90
14188;DHT22;7175;51.978;5.330;2022-08-25T07:01:57;23.30;99.90
14188;DHT22;7175;51.978;5.330;2022-08-25T07:04:34;23.50;99.90
14188;DHT22;7175;51.978;5.330;2022-08-25T07:07:12;23.80;99.90
14188;DHT22;7175;51.978;5.330;2022-08-25T07:09:46;23.80;99.90
14188;DHT22;7175;51.978;5.330;2022-08-25T07:12:37;23.90;99.90
14188;DHT22;7175;51.978;5.330;2022-08-25T07:18:13;24.10;99.90
14188;DHT22;7175;51.978;5.330;2022-08-25T07:20:45;24.20;99.90
14188;DHT22;7175;51.978;5.330;2022-08-25T07:23:25;24.30;99.90
14188;DHT22;7175;51.978;5.330;2022-08-25T07:25:54;24.50;99.90
14188;DHT22;7175;51.978;5.330;2022-08-25T07:28:50;24.60;99.90
14188;DHT22;7175;51.978;5.330;2022-08-25T07:31:31;24.70;99.90
14188;DHT22;7175;51.978;5.330;2022-08-25T07:34:07;24.90;99.90
14188;DHT22;7175;51.978;5.330;2022-08-25T07:37:02;25.00;99.50
14188;DHT22;7175;51.978;5.330;2022-08-25T07:39:33;25.20;98.70
14188;DHT22;7175;51.978;5.330;2022-08-25T07:42:06;25.40;98.50
14188;DHT22;7175;51.978;5.330;2022-08-25T07:44:59;25.70;97.90
14188;DHT22;7175;51.978;5.330;2022-08-25T07:47:29;25.70;97.10
14188;DHT22;7175;51.978;5.330;2022-08-25T07:49:57;25.60;96.80
14188;DHT22;7175;51.978;5.330;2022-08-25T07:52:32;25.80;96.50
14188;DHT22;7175;51.978;5.330;2022-08-25T07:58:49;26.10;96.10
14188;DHT22;7175;51.978;5.330;2022-08-25T08:01:21;26.20;94.80
14188;DHT22;7175;51.978;5.330;2022-08-25T08:03:59;26.30;94.60
14188;DHT22;7175;51.978;5.330;2022-08-25T08:06:39;26.20;94.70
14188;DHT22;7175;51.978;5.330;2022-08-25T08:09:21;26.60;94.80
14188;DHT22;7175;51.978;5.330;2022-08-25T08:12:11;26.70;93.80
14188;DHT22;7175;51.978;5.330;2022-08-25T08:15:00;26.60;93.90
14188;DHT22;7175;51.978;5.330;2022-08-25T08:17:45;26.90;94.00
14188;DHT22;7175;51.978;5.330;2022-08-25T08:20:19;26.90;92.40
14188;DHT22;7175;51.978;5.330;2022-08-25T08:26:19;27.00;91.60
14188;DHT22;7175;51.978;5.330;2022-08-25T08:29:02;27.20;91.90
14188;DHT22;7175;51.978;5.330;2022-08-25T08:31:41;27.60;91.80
14188;DHT22;7175;51.978;5.330;2022-08-25T08:34:32;27.60;91.20
14188;DHT22;7175;51.978;5.330;2022-08-25T08:37:04;27.50;89.30
14188;DHT22;7175;51.978;5.330;2022-08-25T08:39:49;27.70;89.50
14188;DHT22;7175;51.978;5.330;2022-08-25T08:42:48;28.00;87.60
14188;DHT22;7175;51.978;5.330;2022-08-25T08:45:29;28.00;86.80
14188;DHT22;7175;51.978;5.330;2022-08-25T08:48:48;28.10;85.80
14188;DHT22;7175;51.978;5.330;2022-08-25T08:51:22;28.00;85.20
14188;DHT22;7175;51.978;5.330;2022-08-25T08:54:22;28.20;88.30
14188;DHT22;7175;51.978;5.330;2022-08-25T08:57:05;28.30;87.30
14188;DHT22;7175;51.978;5.330;2022-08-25T08:59:46;28.50;90.00
14188;DHT22;7175;51.978;5.330;2022-08-25T09:02:26;28.60;90.40
14188;DHT22;7175;51.978;5.330;2022-08-25T09:05:35;28.70;90.50
14188;DHT22;7175;51.978;5.330;2022-08-25T09:08:18;28.80;90.00
14188;DHT22;7175;51.978;5.330;2022-08-25T09:11:09;29.00;90.30
14188;DHT22;7175;51.978;5.330;2022-08-25T09:13:55;29.20;89.00
14188;DHT22;7175;51.978;5.330;2022-08-25T09:16:43;29.30;86.90
14188;DHT22;7175;51.978;5.330;2022-08-25T09:19:45;29.80;86.30
14188;DHT22;7175;51.978;5.330;2022-08-25T09:22:28;29.80;82.60
14188;DHT22;7175;51.978;5.330;2022-08-25T09:25:20;30.40;80.20
14188;DHT22;7175;51.978;5.330;2022-08-25T09:28:27;30.50;75.80
14188;DHT22;7175;51.978;5.330;2022-08-25T09:30:59;30.50;81.20
14188;DHT22;7175;51.978;5.330;2022-08-25T09:33:36;30.60;78.50
14188;DHT22;7175;51.978;5.330;2022-08-25T09:36:07;30.80;78.30
14188;DHT22;7175;51.978;5.330;2022-08-25T09:38:36;30.80;73.90
14188;DHT22;7175;51.978;5.330;2022-08-25T09:41:34;30.80;74.50
14188;DHT22;7175;51.978;5.330;2022-08-25T09:47:22;30.50;74.90
14188;DHT22;7175;51.978;5.330;2022-08-25T09:50:22;30.60;76.70
14188;DHT22;7175;51.978;5.330;2022-08-25T09:52:54;30.50;75.30
14188;DHT22;7175;51.978;5.330;2022-08-25T09:55:39;30.70;77.10
14188;DHT22;7175;51.978;5.330;2022-08-25T09:58:18;30.80;75.90
14188;DHT22;7175;51.978;5.330;2022-08-25T10:01:12;31.10;74.60
14188;DHT22;7175;51.978;5.330;2022-08-25T10:04:02;30.80;75.80
14188;DHT22;7175;51.978;5.330;2022-08-25T10:06:44;30.90;75.10
14188;DHT22;7175;51.978;5.330;2022-08-25T10:09:25;31.00;74.50
14188;DHT22;7175;51.978;5.330;2022-08-25T10:12:00;31.20;74.30
14188;DHT22;7175;51.978;5.330;2022-08-25T10:14:33;31.60;73.90
14188;DHT22;7175;51.978;5.330;2022-08-25T10:17:14;31.50;70.80
14188;DHT22;7175;51.978;5.330;2022-08-25T10:20:12;31.60;70.70
14188;DHT22;7175;51.978;5.330;2022-08-25T10:26:22;31.80;68.40
14188;DHT22;7175;51.978;5.330;2022-08-25T10:29:04;32.10;63.30
14188;DHT22;7175;51.978;5.330;2022-08-25T10:31:39;32.20;66.40
14188;DHT22;7175;51.978;5.330;2022-08-25T10:34:28;31.80;60.00
14188;DHT22;7175;51.978;5.330;2022-08-25T10:37:11;31.80;63.10
14188;DHT22;7175;51.978;5.330;2022-08-25T10:39:58;31.70;62.80
14188;DHT22;7175;51.978;5.330;2022-08-25T10:42:44;32.00;63.40
14188;DHT22;7175;51.978;5.330;2022-08-25T10:45:42;32.60;60.00
14188;DHT22;7175;51.978;5.330;2022-08-25T10:48:41;32.80;58.00
14188;DHT22;7175;51.978;5.330;2022-08-25T10:51:32;33.50;59.10
14188;DHT22;7175;51.978;5.330;2022-08-25T10:54:29;33.60;57.50
14188;DHT22;7175;51.978;5.330;2022-08-25T10:57:13;33.20;56.80
14188;DHT22;7175;51.978;5.330;2022-08-25T11:00:09;32.70;55.70
14188;DHT22;7175;51.978;5.330;2022-08-25T11:03:10;32.70;55.70
14188;DHT22;7175;51.978;5.330;2022-08-25T11:05:47;33.00;56.00
14188;DHT22;7175;51.978;5.330;2022-08-25T11:08:23;33.40;55.70
14188;DHT22;7175;51.978;5.330;2022-08-25T11:11:02;33.20;54.30
14188;DHT22;7175;51.978;5.330;2022-08-25T11:13:38;33.10;54.60
14188;DHT22;7175;51.978;5.330;2022-08-25T11:16:41;32.60;53.20
14188;DHT22;7175;51.978;5.330;2022-08-25T11:19:19;32.80;53.50
14188;DHT22;7175;51.978;5.330;2022-08-25T11:21:52;32.60;53.10
14188;DHT22;7175;51.978;5.330;2022-08-25T11:24:41;33.10;53.40
14188;DHT22;7175;51.978;5.330;2022-08-25T11:27:17;33.90;52.10
14188;DHT22;7175;51.978;5.330;2022-08-25T11:29:57;33.90;49.60
14188;DHT22;7175;51.978;5.330;2022-08-25T11:32:42;33.90;49.10
14188;DHT22;7175;51.978;5.330;2022-08-25T11:35:16;33.60;47.20
14188;DHT22;7175;51.978;5.330;2022-08-25T11:38:00;33.00;48.70
14188;DHT22;7175;51.978;5.330;2022-08-25T11:40:55;33.20;51.20
14188;DHT22;7175;51.978;5.330;2022-08-25T11:46:26;32.80;47.60
14188;DHT22;7175;51.978;5.330;2022-08-25T11:49:06;33.20;50.40
14188;DHT22;7175;51.978;5.330;2022-08-25T11:51:45;33.40;48.40
14188;DHT22;7175;51.978;5.330;2022-08-25T11:54:19;33.40;48.70
14188;DHT22;7175;51.978;5.330;2022-08-25T11:57:16;32.70;48.10
14188;DHT22;7175;51.978;5.330;2022-08-25T12:00:18;33.00;47.50
14188;DHT22;7175;51.978;5.330;2022-08-25T12:03:45;33.40;49.30
14188;DHT22;7175;51.978;5.330;2022-08-25T12:06:28;34.20;49.30
14188;DHT22;7175;51.978;5.330;2022-08-25T12:09:20;34.30;48.50
14188;DHT22;7175;51.978;5.330;2022-08-25T12:11:55;34.60;46.80
14188;DHT22;7175;51.978;5.330;2022-08-25T12:14:46;34.30;46.20
14188;DHT22;7175;51.978;5.330;2022-08-25T12:17:25;34.10;45.80
14188;DHT22;7175;51.978;5.330;2022-08-25T12:19:57;34.10;45.30
14188;DHT22;7175;51.978;5.330;2022-08-25T12:23:00;34.40;45.50
14188;DHT22;7175;51.978;5.330;2022-08-25T12:25:38;35.10;44.90
14188;DHT22;7175;51.978;5.330;2022-08-25T12:28:25;35.00;43.10
14188;DHT22;7175;51.978;5.330;2022-08-25T12:31:29;35.30;45.90
14188;DHT22;7175;51.978;5.330;2022-08-25T12:34:09;35.10;41.80
14188;DHT22;7175;51.978;5.330;2022-08-25T12:36:55;35.20;40.50
14188;DHT22;7175;51.978;5.330;2022-08-25T12:39:31;35.60;41.20
14188;DHT22;7175;51.978;5.330;2022-08-25T12:42:04;35.50;39.40
14188;DHT22;7175;51.978;5.330;2022-08-25T12:44:37;35.40;41.60
14188;DHT22;7175;51.978;5.330;2022-08-25T12:47:25;35.40;38.40
14188;DHT22;7175;51.978;5.330;2022-08-25T12:50:28;35.30;40.10
14188;DHT22;7175;51.978;5.330;2022-08-25T12:53:08;35.30;39.00
14188;DHT22;7175;51.978;5.330;2022-08-25T12:55:41;35.40;38.10
14188;DHT22;7175;51.978;5.330;2022-08-25T12:58:11;34.90;36.40
14188;DHT22;7175;51.978;5.330;2022-08-25T13:00:56;35.30;36.80
14188;DHT22;7175;51.978;5.330;2022-08-25T13:03:54;35.30;35.60
14188;DHT22;7175;51.978;5.330;2022-08-25T13:06:37;35.10;36.10
14188;DHT22;7175;51.978;5.330;2022-08-25T13:09:48;35.00;37.90
14188;DHT22;7175;51.978;5.330;2022-08-25T13:12:30;34.40;38.50
14188;DHT22;7175;51.978;5.330;2022-08-25T13:15:00;35.00;38.70
14188;DHT22;7175;51.978;5.330;2022-08-25T13:17:31;34.60;37.10
14188;DHT22;7175;51.978;5.330;2022-08-25T13:20:14;34.20;37.20
14188;DHT22;7175;51.978;5.330;2022-08-25T13:22:46;34.80;37.70
14188;DHT22;7175;51.978;5.330;2022-08-25T13:25:16;35.40;36.70
14188;DHT22;7175;51.978;5.330;2022-08-25T13:27:54;35.40;36.50
14188;DHT22;7175;51.978;5.330;2022-08-25T13:30:26;36.00;34.00
14188;DHT22;7175;51.978;5.330;2022-08-25T13:32:55;35.90;31.90
14188;DHT22;7175;51.978;5.330;2022-08-25T13:35:25;35.60;33.40
14188;DHT22;7175;51.978;5.330;2022-08-25T13:38:11;35.50;33.20
14188;DHT22;7175;51.978;5.330;2022-08-25T13:40:39;35.60;33.60
14188;DHT22;7175;51.978;5.330;2022-08-25T13:43:12;35.60;34.30
14188;DHT22;7175;51.978;5.330;2022-08-25T13:45:43;35.10;33.80
14188;DHT22;7175;51.978;5.330;2022-08-25T13:48:13;35.30;33.50
14188;DHT22;7175;51.978;5.330;2022-08-25T13:51:06;35.00;33.70
14188;DHT22;7175;51.978;5.330;2022-08-25T13:53:36;34.90;32.10
14188;DHT22;7175;51.978;5.330;2022-08-25T13:56:05;35.10;33.70
14188;DHT22;7175;51.978;5.330;2022-08-25T13:58:41;35.60;33.60
14188;DHT22;7175;51.978;5.330;2022-08-25T14:01:15;36.00;32.70
14188;DHT22;7175;51.978;5.330;2022-08-25T14:04:30;36.20;35.90
14188;DHT22;7175;51.978;5.330;2022-08-25T14:07:24;36.80;34.20
14188;DHT22;7175;51.978;5.330;2022-08-25T14:10:03;36.80;33.50
14188;DHT22;7175;51.978;5.330;2022-08-25T14:12:38;36.60;35.20
14188;DHT22;7175;51.978;5.330;2022-08-25T14:15:14;36.20;31.90
14188;DHT22;7175;51.978;5.330;2022-08-25T14:18:02;36.00;32.80
14188;DHT22;7175;51.978;5.330;2022-08-25T14:20:32;35.70;33.60
14188;DHT22;7175;51.978;5.330;2022-08-25T14:23:05;35.60;32.60
14188;DHT22;7175;51.978;5.330;2022-08-25T14:25:36;35.60;34.60
14188;DHT22;7175;51.978;5.330;2022-08-25T14:28:10;35.70;35.80
14188;DHT22;7175;51.978;5.330;2022-08-25T14:30:43;35.70;35.00
14188;DHT22;7175;51.978;5.330;2022-08-25T14:33:13;34.90;32.20
14188;DHT22;7175;51.978;5.330;2022-08-25T14:35:45;34.60;31.90
14188;DHT22;7175;51.978;5.330;2022-08-25T14:38:15;34.50;32.60
14188;DHT22;7175;51.978;5.330;2022-08-25T14:40:44;34.30;32.60
14188;DHT22;7175;51.978;5.330;2022-08-25T14:43:13;33.90;34.50
14188;DHT22;7175;51.978;5.330;2022-08-25T14:45:45;33.80;34.00
14188;DHT22;7175;51.978;5.330;2022-08-25T14:48:21;33.40;34.90
14188;DHT22;7175;51.978;5.330;2022-08-25T14:50:51;33.40;34.70
14188;DHT22;7175;51.978;5.330;2022-08-25T14:53:19;33.50;34.40
14188;DHT22;7175;51.978;5.330;2022-08-25T14:55:47;33.00;33.50
14188;DHT22;7175;51.978;5.330;2022-08-25T14:58:24;33.00;36.50
14188;DHT22;7175;51.978;5.330;2022-08-25T15:00:54;33.20;41.30
14188;DHT22;7175;51.978;5.330;2022-08-25T15:03:28;33.30;35.90
14188;DHT22;7175;51.978;5.330;2022-08-25T15:05:57;33.20;39.00
14188;DHT22;7175;51.978;5.330;2022-08-25T15:08:28;32.90;36.40
14188;DHT22;7175;51.978;5.330;2022-08-25T15:11:14;32.70;35.30
14188;DHT22;7175;51.978;5.330;2022-08-25T15:13:42;32.80;38.20
14188;DHT22;7175;51.978;5.330;2022-08-25T15:16:21;32.70;42.20
14188;DHT22;7175;51.978;5.330;2022-08-25T15:19:00;32.80;38.00
14188;DHT22;7175;51.978;5.330;2022-08-25T15:21:32;32.70;40.70
14188;DHT22;7175;51.978;5.330;2022-08-25T15:24:01;32.50;40.90
14188;DHT22;7175;51.978;5.330;2022-08-25T15:26:32;32.50;40.80
14188;DHT22;7175;51.978;5.330;2022-08-25T15:29:02;32.40;44.30
14188;DHT22;7175;51.978;5.330;2022-08-25T15:31:31;32.20;45.70
14188;DHT22;7175;51.978;5.330;2022-08-25T15:34:00;32.10;51.00
14188;DHT22;7175;51.978;5.330;2022-08-25T15:36:28;32.20;46.90
14188;DHT22;7175;51.978;5.330;2022-08-25T15:38:56;32.20;46.50
14188;DHT22;7175;51.978;5.330;2022-08-25T15:41:24;32.20;43.00
14188;DHT22;7175;51.978;5.330;2022-08-25T15:43:53;32.10;46.30
14188;DHT22;7175;51.978;5.330;2022-08-25T15:46:23;32.00;46.80
14188;DHT22;7175;51.978;5.330;2022-08-25T15:48:53;32.00;46.00
14188;DHT22;7175;51.978;5.330;2022-08-25T15:51:26;31.90;46.50
14188;DHT22;7175;51.978;5.330;2022-08-25T15:53:56;31.90;43.60
14188;DHT22;7175;51.978;5.330;2022-08-25T15:56:24;31.80;47.40
14188;DHT22;7175;51.978;5.330;2022-08-25T15:58:53;31.50;49.60
14188;DHT22;7175;51.978;5.330;2022-08-25T16:01:23;31.50;46.10
14188;DHT22;7175;51.978;5.330;2022-08-25T16:03:53;31.50;48.80
14188;DHT22;7175;51.978;5.330;2022-08-25T16:06:24;31.40;44.60
14188;DHT22;7175;51.978;5.330;2022-08-25T16:08:52;31.40;46.70
14188;DHT22;7175;51.978;5.330;2022-08-25T16:11:23;31.40;46.10
14188;DHT22;7175;51.978;5.330;2022-08-25T16:13:52;31.40;42.10
14188;DHT22;7175;51.978;5.330;2022-08-25T16:16:23;31.30;42.60
14188;DHT22;7175;51.978;5.330;2022-08-25T16:18:56;31.30;45.20
14188;DHT22;7175;51.978;5.330;2022-08-25T16:21:26;31.10;48.40
14188;DHT22;7175;51.978;5.330;2022-08-25T16:23:58;30.90;50.60
14188;DHT22;7175;51.978;5.330;2022-08-25T16:26:31;30.70;52.40
14188;DHT22;7175;51.978;5.330;2022-08-25T16:29:00;30.60;53.50
14188;DHT22;7175;51.978;5.330;2022-08-25T16:31:32;30.50;55.30
14188;DHT22;7175;51.978;5.330;2022-08-25T16:34:01;30.60;51.60
14188;DHT22;7175;51.978;5.330;2022-08-25T16:36:32;30.50;55.40
14188;DHT22;7175;51.978;5.330;2022-08-25T16:39:03;30.30;54.90
14188;DHT22;7175;51.978;5.330;2022-08-25T16:41:49;30.20;57.20
14188;DHT22;7175;51.978;5.330;2022-08-25T16:44:20;30.10;56.10
14188;DHT22;7175;51.978;5.330;2022-08-25T16:46:48;30.10;58.10
14188;DHT22;7175;51.978;5.330;2022-08-25T16:49:22;30.00;61.00
14188;DHT22;7175;51.978;5.330;2022-08-25T16:51:51;29.80;62.60
14188;DHT22;7175;51.978;5.330;2022-08-25T16:54:23;29.70;63.80
14188;DHT22;7175;51.978;5.330;2022-08-25T16:57:10;29.60;65.30
14188;DHT22;7175;51.978;5.330;2022-08-25T16:59:38;29.50;64.00
14188;DHT22;7175;51.978;5.330;2022-08-25T17:02:06;29.50;69.90
14188;DHT22;7175;51.978;5.330;2022-08-25T17:04:35;29.50;70.10
14188;DHT22;7175;51.978;5.330;2022-08-25T17:07:04;29.50;70.80
14188;DHT22;7175;51.978;5.330;2022-08-25T17:09:34;29.60;74.30
14188;DHT22;7175;51.978;5.330;2022-08-25T17:12:04;29.50;77.50
14188;DHT22;7175;51.978;5.330;2022-08-25T17:14:32;29.50;77.90
14188;DHT22;7175;51.978;5.330;2022-08-25T17:17:01;29.30;82.20
14188;DHT22;7175;51.978;5.330;2022-08-25T17:19:34;29.20;81.40
14188;DHT22;7175;51.978;5.330;2022-08-25T17:22:05;29.30;83.50
14188;DHT22;7175;51.978;5.330;2022-08-25T17:24:34;29.30;84.60
14188;DHT22;7175;51.978;5.330;2022-08-25T17:27:06;29.20;85.70